KBJC/BJC METAR and TAF weather

Enter ICAO airport designator
Station Type Date Time Source
KBJC METAR 2024/02/26 17:48 UTC NOAA

KBJC 261748Z 27025G33KT 10SM FEW080 SCT100 15/M11 A2973


Station Type Date Time Source
KBJC Decoded METAR 2024/02/26 17:48 UTC NOAA

Broomfield / Jeffco, CO, United States (KBJC) 39-55N 105-07W
Feb 26, 2024 - 12:48 PM EST / 2024.02.26 1748 UTC
Wind: from the W (270 degrees) at 29 MPH (25 KT) gusting to 38 MPH (33 KT):0
Visibility: 10 mile(s):0
Sky conditions: partly cloudy
Temperature: 59 F (15 C)
Dew Point: 12 F (-11 C)
Relative Humidity: 15%
Pressure (altimeter): 29.73 in. Hg (1006 hPa)
ob: KBJC 261748Z 27025G33KT 10SM FEW080 SCT100 15/M11 A2973
cycle: 18

Station Type Date Time Source
KBJC TAF 2024/02/26 18:42 UTC NOAA